Crown Topaz — 3FAS9 — position and weather

sailwx.info

Track history (hours):
 
Tides and Currents Weather Stations Pressure Air Temp Water Temp Dewpoint Dewpoint Depression Visibility Wind Speed Wind Dir Waves Ship Positions

Crown Topaz

Last reported at 2017-Jan-17 04:09 UTC. Time now 2017-Jan-18 14:02 UTC.
Position N 49°14' W 005°15'.

Length 152 m; draft 8 m.

Type: Ship. MMSI: 357144000.

Date/timePositionNaut miles runAvg speedWind from/ knotsBaromVisibWave heightAir tempDewpointWater temp
2017-Jan-17 04:09N 49°14' W 005°15'1118.2
2017-Jan-17 03:33N 49°19' W 004°60'1918.5
2017-Jan-17 02:31N 49°28' W 004°34'2118.9
2017-Jan-17 01:26N 49°37' W 004°05'1618.5
2017-Jan-17 00:33N 49°44' W 003°43'1717.4
2017-Jan-16 23:33N 49°52' W 003°19'1616.2
2017-Jan-16 22:33N 49°59' W 002°56'3715.8
2017-Jan-16 20:14N 50°10' W 002°02'1217.4
2017-Jan-16 19:33N 50°13' W 001°44'4219.7
2017-Jan-16 17:25N 50°25' W 000°41'1819.7
2017-Jan-16 16:31N 50°30' W 000°14'1818.7
2017-Jan-16 15:33N 50°34' E 000°13'1717.4
2017-Jan-16 14:33N 50°40' E 000°39'1716.3
2017-Jan-16 13:30N 50°50' E 001°01'1515.9
2017-Jan-16 12:33N 50°60' E 001°19'1818.0
2017-Jan-16 11:33N 51°11' E 001°41'2019.6
2017-Jan-16 10:33N 51°27' E 002°00'13717.1
2017-Jan-16 02:33N 53°12' E 004°24'34916.6
2017-Jan-15 05:31N 57°49' E 010°39'7 7.4
2017-Jan-15 04:34N 57°42' E 010°40'1 0.9
2017-Jan-15 03:22N 57°41' E 010°38'0 0.0
2017-Jan-15 02:31N 57°41' E 010°38'0 0.0
2017-Jan-15 01:31N 57°41' E 010°38'0 0.0
2017-Jan-15 00:28N 57°41' E 010°38'0 0.0
2017-Jan-14 23:31N 57°41' E 010°38'5 5.3
2017-Jan-14 22:33N 57°42' E 010°47'1312.7
2017-Jan-14 21:33N 57°48' E 011°09'1211.9
2017-Jan-14 20:33N 57°52' E 011°29'1312.5
2017-Jan-14 19:33N 58°01' E 011°47'10 9.4
2017-Jan-14 18:32N 58°10' E 011°51'  
2017-Jan-10 06:33N 58°21' E 011°54'6 5.8
2017-Jan-10 05:26N 58°15' E 011°50'1112.0
2017-Jan-10 04:33N 58°04' E 011°47'1111.0
2017-Jan-10 03:34N 57°55' E 011°36'1111.0
2017-Jan-10 02:33N 57°47' E 011°22'1514.9
2017-Jan-10 01:33N 57°32' E 011°24'1616.1
2017-Jan-10 00:33N 57°17' E 011°34'12315.0
2017-Jan-09 16:23N 55°15' E 011°05'1315.7
2017-Jan-09 15:34N 55°03' E 011°03'1615.8
2017-Jan-09 14:33N 54°48' E 010°53'1716.6
2017-Jan-09 13:33N 54°35' E 011°12'1918.8
2017-Jan-09 12:33N 54°28' E 011°42'1716.6
2017-Jan-09 11:33N 54°29' E 012°10'5417.2
2017-Jan-09 08:24N 54°57' E 013°31'1517.6
2017-Jan-09 07:33N 55°02' E 013°55'1717.1
2017-Jan-09 06:33N 55°14' E 014°17'1818.0
2017-Jan-09 05:33N 55°27' E 014°38'1818.0
2017-Jan-09 04:33N 55°37' E 015°05'34317.2
2017-Jan-08 08:33N 59°33' E 022°50'1717.2
2017-Jan-08 07:33N 59°38' E 023°22'1717.3
2017-Jan-08 06:33N 59°43' E 023°55'7017.3
2017-Jan-08 02:31N 59°58' E 026°11'1617.0
2017-Jan-08 01:33N 60°01' E 026°43'1616.5
2017-Jan-08 00:33N 60°03' E 027°16'1817.5
2017-Jan-07 23:33N 60°12' E 027°47'1717.2
2017-Jan-07 22:33N 60°07' E 028°19'1514.8
2017-Jan-07 21:33N 60°03' E 028°48'2311.0
2017-Jan-07 19:30N 60°01' E 029°33'910.0
2017-Jan-07 18:34N 59°57' E 029°50'1010.4
2017-Jan-07 17:33N 59°53' E 030°09'2 2.3
2017-Jan-07 16:33N 59°55' E 030°13'0 0.1
2017-Jan-07 15:31N 59°54' E 030°13'0 0.0
2017-Jan-07 14:31N 59°54' E 030°13'0 0.0
2017-Jan-07 13:31N 59°54' E 030°13'0 0.0
2017-Jan-07 12:31N 59°54' E 030°13'0 0.0
2017-Jan-07 11:31N 59°54' E 030°13'0 0.0
2017-Jan-07 10:31N 59°54' E 030°13'0 0.0
2017-Jan-07 09:31N 59°54' E 030°13'0 0.0
2017-Jan-07 08:31N 59°54' E 030°13'0 0.0
2017-Jan-07 07:31N 59°54' E 030°13'0 0.0
2017-Jan-07 06:31N 59°54' E 030°13'0 0.0
2017-Jan-07 05:31N 59°54' E 030°13'0 0.0
2017-Jan-07 04:31N 59°54' E 030°13'  
Track history (hours):
 
Tides and Currents Weather Stations Pressure Air Temp Water Temp Dewpoint Dewpoint Depression Visibility Wind Speed Wind Dir Waves Ship Positions

Crown Topaz

Last reported at 2017-Jan-17 04:09 UTC. Time now 2017-Jan-18 14:02 UTC.
Position N 49°14' W 005°15'.

Length 152 m; draft 8 m.

Type: Ship. MMSI: 357144000.

Date/timePositionNaut miles runAvg speedWind from/ knotsBaromVisibWave heightAir tempDewpointWater temp
2017-Jan-17 04:09N 49°14' W 005°15'1118.2
2017-Jan-17 03:33N 49°19' W 004°60'1918.5
2017-Jan-17 02:31N 49°28' W 004°34'2118.9
2017-Jan-17 01:26N 49°37' W 004°05'1618.5
2017-Jan-17 00:33N 49°44' W 003°43'1717.4
2017-Jan-16 23:33N 49°52' W 003°19'1616.2
2017-Jan-16 22:33N 49°59' W 002°56'3715.8
2017-Jan-16 20:14N 50°10' W 002°02'1217.4
2017-Jan-16 19:33N 50°13' W 001°44'4219.7
2017-Jan-16 17:25N 50°25' W 000°41'1819.7
2017-Jan-16 16:31N 50°30' W 000°14'1818.7
2017-Jan-16 15:33N 50°34' E 000°13'1717.4
2017-Jan-16 14:33N 50°40' E 000°39'1716.3
2017-Jan-16 13:30N 50°50' E 001°01'1515.9
2017-Jan-16 12:33N 50°60' E 001°19'1818.0
2017-Jan-16 11:33N 51°11' E 001°41'2019.6
2017-Jan-16 10:33N 51°27' E 002°00'13717.1
2017-Jan-16 02:33N 53°12' E 004°24'34916.6
2017-Jan-15 05:31N 57°49' E 010°39'7 7.4
2017-Jan-15 04:34N 57°42' E 010°40'1 0.9
2017-Jan-15 03:22N 57°41' E 010°38'0 0.0
2017-Jan-15 02:31N 57°41' E 010°38'0 0.0
2017-Jan-15 01:31N 57°41' E 010°38'0 0.0
2017-Jan-15 00:28N 57°41' E 010°38'0 0.0
2017-Jan-14 23:31N 57°41' E 010°38'5 5.3
2017-Jan-14 22:33N 57°42' E 010°47'1312.7
2017-Jan-14 21:33N 57°48' E 011°09'1211.9
2017-Jan-14 20:33N 57°52' E 011°29'1312.5
2017-Jan-14 19:33N 58°01' E 011°47'10 9.4
2017-Jan-14 18:32N 58°10' E 011°51'  
2017-Jan-10 06:33N 58°21' E 011°54'6 5.8
2017-Jan-10 05:26N 58°15' E 011°50'1112.0
2017-Jan-10 04:33N 58°04' E 011°47'1111.0
2017-Jan-10 03:34N 57°55' E 011°36'1111.0
2017-Jan-10 02:33N 57°47' E 011°22'1514.9
2017-Jan-10 01:33N 57°32' E 011°24'1616.1
2017-Jan-10 00:33N 57°17' E 011°34'12315.0
2017-Jan-09 16:23N 55°15' E 011°05'1315.7
2017-Jan-09 15:34N 55°03' E 011°03'1615.8
2017-Jan-09 14:33N 54°48' E 010°53'1716.6
2017-Jan-09 13:33N 54°35' E 011°12'1918.8
2017-Jan-09 12:33N 54°28' E 011°42'1716.6
2017-Jan-09 11:33N 54°29' E 012°10'5417.2
2017-Jan-09 08:24N 54°57' E 013°31'1517.6
2017-Jan-09 07:33N 55°02' E 013°55'1717.1
2017-Jan-09 06:33N 55°14' E 014°17'1818.0
2017-Jan-09 05:33N 55°27' E 014°38'1818.0
2017-Jan-09 04:33N 55°37' E 015°05'34317.2
2017-Jan-08 08:33N 59°33' E 022°50'1717.2
2017-Jan-08 07:33N 59°38' E 023°22'1717.3
2017-Jan-08 06:33N 59°43' E 023°55'7017.3
2017-Jan-08 02:31N 59°58' E 026°11'1617.0
2017-Jan-08 01:33N 60°01' E 026°43'1616.5
2017-Jan-08 00:33N 60°03' E 027°16'1817.5
2017-Jan-07 23:33N 60°12' E 027°47'1717.2
2017-Jan-07 22:33N 60°07' E 028°19'1514.8
2017-Jan-07 21:33N 60°03' E 028°48'2311.0
2017-Jan-07 19:30N 60°01' E 029°33'910.0
2017-Jan-07 18:34N 59°57' E 029°50'1010.4
2017-Jan-07 17:33N 59°53' E 030°09'2 2.3
2017-Jan-07 16:33N 59°55' E 030°13'0 0.1
2017-Jan-07 15:31N 59°54' E 030°13'0 0.0
2017-Jan-07 14:31N 59°54' E 030°13'0 0.0
2017-Jan-07 13:31N 59°54' E 030°13'0 0.0
2017-Jan-07 12:31N 59°54' E 030°13'0 0.0
2017-Jan-07 11:31N 59°54' E 030°13'0 0.0
2017-Jan-07 10:31N 59°54' E 030°13'0 0.0
2017-Jan-07 09:31N 59°54' E 030°13'0 0.0
2017-Jan-07 08:31N 59°54' E 030°13'0 0.0
2017-Jan-07 07:31N 59°54' E 030°13'0 0.0
2017-Jan-07 06:31N 59°54' E 030°13'0 0.0
2017-Jan-07 05:31N 59°54' E 030°13'0 0.0
2017-Jan-07 04:31N 59°54' E 030°13'  

Dump ship's entire track history